Great Smoky Mtns National Park, NC

9:43 PM EDT on July 30, 2016 (GMT -0400)
North Asheville | | Change Station

Elev 2224 ft 35.61 °N, 82.55 °W | Updated 2 minutes ago

Clear
Clear
70.1 °F
Feels Like 70.1 °F
N
0.0
Wind Variable Wind from North
Gusts 0.0 mph

Today
High -- | Low -- °F
--% Chance of Precip.
Yesterday
High -- | Low -- °F
Precip. -- in
Pressure 30.01 in
Visibility 10.0 miles
Clouds Clear
Dew Point 65 °F
Humidity 83%
Rainfall 1.10 in
Snow Depth Not available.
6:37 AM 8:35 PM
Waning Crescent, 9% visible
METAR KAVL 310054Z 00000KT 10SM CLR 23/20 A3008 RMK AO2 SLP160 T02280200
Pressure 30.01 in
Visibility 10.0 miles
Clouds Clear
Dew Point 65 °F
Humidity 83%
Rainfall 1.10 in
Snow Depth Not available.
6:37 AM 8:35 PM
Waning Crescent, 9% visible
METAR KAVL 310054Z 00000KT 10SM CLR 23/20 A3008 RMK AO2 SLP160 T02280200

10-Day Weather Forecast

Almanac

Astronomy

Jul. 30, 2016 Rise Set
Actual Time
Civil Twilight
Nautical Twilight
Astronomical Twilight
Moon
Length of Visible Light
Length of Day
Tomorrow will be .
, % of the Moon is Illuminated

Today's Extremes

State Highs State Lows

Community

WunderPhotos

Upload Photos

1,928,702 photos uploaded!

WunderBlog® & News

Nearby

Air Quality

  Air Quality AQ Index Pollutant
Not available.

Snow Depth

Station Depth Elevation

Earthquake Activity

City Distance Mag. Time & Date
Minimum magnitude displayed is 2.5.

Coastal Water Temperatures

Place Temperature

Stations

Nearby Weather Stations

Station Location Temp. Windchill Dew Point Humidity Wind Precip. Elev Updated Type
                   

Watches & Warnings

There are currently no watches in effect.